Time;durP1;ratioP1;P1;durP2;ratioP2;P2;SDS_P1;SDS_P2;PMS_P1;PMS_P2;Temp;Humidity;BMP_temperature;BMP_pressure;BME280_temperature;BME280_humidity;BME280_pressure;Samples;Min_cycle;Max_cycle;Signal;HPM_P1;HPM_P2
2021/12/26 05:00:38;;;;;;;21.50;11.90;;;5.30;99.90;;;;;;5885018;23;20845;-74
2021/12/26 05:03:07;;;;;;;23.47;12.67;;;5.30;99.90;;;;;;4953677;29;20548;-74
2021/12/26 05:05:35;;;;;;;25.73;12.10;;;5.30;99.90;;;;;;4953543;28;21051;-73
2021/12/26 05:08:03;;;;;;;25.30;13.57;;;5.40;99.90;;;;;;4953995;29;20591;-73
2021/12/26 05:10:30;;;;;;;21.70;12.00;;;5.40;99.90;;;;;;4953421;28;20547;-74
2021/12/26 05:12:58;;;;;;;20.17;12.20;;;5.40;99.90;;;;;;4953457;29;20833;-73
2021/12/26 05:15:25;;;;;;;27.80;13.10;;;5.30;99.90;;;;;;4953394;29;20543;-71
2021/12/26 05:17:54;;;;;;;23.20;12.63;;;5.40;99.90;;;;;;4953542;29;20453;-71
2021/12/26 05:20:22;;;;;;;22.97;12.90;;;5.40;99.90;;;;;;4955280;28;20891;-72
2021/12/26 05:22:52;;;;;;;19.93;11.90;;;5.40;99.90;;;;;;4956947;29;20453;-72
2021/12/26 05:25:20;;;;;;;22.00;12.63;;;5.40;99.90;;;;;;4956946;29;20579;-72
2021/12/26 05:27:48;;;;;;;19.17;11.07;;;5.40;99.90;;;;;;4956536;29;20496;-73
2021/12/26 05:30:18;;;;;;;22.10;12.53;;;5.40;99.90;;;;;;4956680;28;20488;-72
2021/12/26 05:32:45;;;;;;;23.03;12.40;;;5.40;99.90;;;;;;4957060;29;20548;-71
2021/12/26 05:35:15;;;;;;;21.00;12.30;;;5.40;99.90;;;;;;4956805;29;20539;-72
2021/12/26 05:37:43;;;;;;;25.77;13.43;;;5.50;99.90;;;;;;4956674;29;20547;-72
2021/12/26 05:40:12;;;;;;;21.83;12.40;;;5.40;99.90;;;;;;4956261;29;21017;-72
2021/12/26 05:42:39;;;;;;;21.27;12.97;;;5.50;99.90;;;;;;4956393;29;20539;-71
2021/12/26 05:45:09;;;;;;;22.23;11.80;;;5.50;99.90;;;;;;4956658;29;20929;-72
2021/12/26 05:47:36;;;;;;;20.10;12.37;;;5.50;99.90;;;;;;4956677;29;20544;-72
2021/12/26 05:50:06;;;;;;;23.50;12.33;;;5.50;99.90;;;;;;4956284;29;20453;-71
2021/12/26 05:52:34;;;;;;;26.13;12.67;;;5.40;99.90;;;;;;4956351;28;20508;-71
2021/12/26 05:55:01;;;;;;;21.17;11.37;;;5.40;99.90;;;;;;4956645;29;20822;-71
2021/12/26 05:57:28;;;;;;;23.43;13.43;;;5.40;99.90;;;;;;4956653;29;20540;-72
2021/12/26 05:59:54;;;;;;;20.57;11.73;;;5.40;99.90;;;;;;4956119;29;20495;-72
2021/12/26 06:02:21;;;;;;;25.63;13.47;;;5.40;99.90;;;;;;4956218;28;20922;-71
2021/12/26 06:04:48;;;;;;;22.10;12.63;;;5.40;99.90;;;;;;4956401;29;20540;-72
2021/12/26 06:07:15;;;;;;;25.30;14.30;;;5.50;99.90;;;;;;4956041;29;21012;-71
2021/12/26 06:09:44;;;;;;;25.00;13.43;;;5.50;99.90;;;;;;4955680;28;20921;-71
2021/12/26 06:12:11;;;;;;;27.07;14.73;;;5.50;99.90;;;;;;4956201;28;20555;-72
2021/12/26 06:14:38;;;;;;;28.40;14.40;;;5.40;99.90;;;;;;4956119;28;20541;-72
2021/12/26 06:17:05;;;;;;;25.10;13.60;;;5.50;99.90;;;;;;4955982;29;20463;-72
2021/12/26 06:19:32;;;;;;;28.50;15.00;;;5.50;99.90;;;;;;4955655;29;20548;-72
2021/12/26 06:21:59;;;;;;;26.60;14.13;;;5.50;99.90;;;;;;4955567;28;20472;-72
2021/12/26 06:24:26;;;;;;;28.17;15.27;;;5.50;99.90;;;;;;4955906;29;20497;-72
2021/12/26 06:26:54;;;;;;;27.93;14.20;;;5.50;99.90;;;;;;4955777;29;20504;-71
2021/12/26 06:29:21;;;;;;;27.33;15.07;;;5.50;99.90;;;;;;4955427;29;21017;-72
2021/12/26 06:31:48;;;;;;;30.30;14.20;;;5.50;99.90;;;;;;4955380;28;20483;-71
2021/12/26 06:34:15;;;;;;;25.37;13.67;;;5.50;99.90;;;;;;4955648;29;20465;-71
2021/12/26 06:36:42;;;;;;;30.07;15.27;;;5.50;99.90;;;;;;4955425;29;20453;-72
2021/12/26 06:39:09;;;;;;;27.47;14.53;;;5.50;99.90;;;;;;4955182;29;20480;-71
2021/12/26 06:41:38;;;;;;;30.20;15.17;;;5.50;99.90;;;;;;4955362;28;21013;-72
2021/12/26 06:44:08;;;;;;;28.47;14.70;;;5.50;99.90;;;;;;4955330;29;20887;-71
2021/12/26 06:46:35;;;;;;;30.47;15.33;;;5.50;99.90;;;;;;4955637;29;21020;-72
2021/12/26 06:49:04;;;;;;;31.40;15.77;;;5.50;99.90;;;;;;4954848;29;20456;-72
2021/12/26 06:51:31;;;;;;;27.80;14.30;;;5.40;99.90;;;;;;4955247;28;21045;-71
2021/12/26 06:53:58;;;;;;;38.37;16.87;;;5.40;99.90;;;;;;4955364;29;20532;-71
2021/12/26 06:56:25;;;;;;;27.00;14.27;;;5.40;99.90;;;;;;4955406;29;20540;-72
2021/12/26 06:58:52;;;;;;;29.60;16.03;;;5.40;99.90;;;;;;4954907;29;20996;-72
2021/12/26 07:01:20;;;;;;;41.30;15.57;;;5.40;99.90;;;;;;4954878;28;20935;-72
2021/12/26 07:03:47;;;;;;;31.83;14.60;;;5.40;99.90;;;;;;4954792;29;20507;-71
2021/12/26 07:06:14;;;;;;;25.60;15.10;;;5.40;99.90;;;;;;4955213;29;20579;-72
2021/12/26 07:08:41;;;;;;;27.23;14.40;;;5.30;99.90;;;;;;4955017;28;20610;-73
2021/12/26 07:11:07;;;;;;;34.83;16.60;;;5.30;99.90;;;;;;4954886;28;20555;-71
2021/12/26 07:13:34;;;;;;;36.40;15.87;;;5.40;99.90;;;;;;4954915;29;20973;-74
2021/12/26 07:16:01;;;;;;;30.57;15.73;;;5.40;99.90;;;;;;4954988;29;20532;-74
2021/12/26 07:18:29;;;;;;;35.50;16.50;;;5.30;99.90;;;;;;4944102;29;20458;-74
2021/12/26 07:20:56;;;;;;;36.17;17.37;;;5.40;99.90;;;;;;4935327;29;20920;-74
2021/12/26 07:23:23;;;;;;;34.50;17.07;;;5.40;99.90;;;;;;4935511;29;20839;-74
2021/12/26 07:25:50;;;;;;;33.40;16.23;;;5.40;99.90;;;;;;4935541;29;20541;-74
2021/12/26 07:28:17;;;;;;;34.37;17.33;;;5.40;99.90;;;;;;4935407;29;20527;-74
2021/12/26 07:30:44;;;;;;;31.30;16.20;;;5.40;99.90;;;;;;4935058;29;20565;-73
2021/12/26 07:33:11;;;;;;;33.13;16.03;;;5.40;99.90;;;;;;4935660;29;20808;-74
2021/12/26 07:35:39;;;;;;;35.33;18.40;;;5.40;99.90;;;;;;4935622;29;20544;-74
2021/12/26 07:38:06;;;;;;;29.90;16.07;;;5.40;99.90;;;;;;4935428;29;20540;-74
2021/12/26 07:40:33;;;;;;;32.80;16.47;;;5.50;99.90;;;;;;4935151;29;20564;-74
2021/12/26 07:43:00;;;;;;;37.37;16.67;;;5.50;99.90;;;;;;4934724;29;20545;-75
2021/12/26 07:45:27;;;;;;;39.03;17.80;;;5.50;99.90;;;;;;4935043;29;20458;-74
2021/12/26 07:47:54;;;;;;;34.73;16.67;;;5.50;99.90;;;;;;4935147;29;20855;-75
2021/12/26 07:50:21;;;;;;;33.50;16.97;;;5.50;99.90;;;;;;4934946;29;20533;-74
2021/12/26 07:52:52;;;;;;;33.13;16.90;;;5.50;99.90;;;;;;4934954;29;20827;-74
2021/12/26 07:55:19;;;;;;;33.53;16.10;;;5.50;99.90;;;;;;4935129;29;20462;-74
2021/12/26 07:57:48;;;;;;;33.40;17.00;;;5.50;99.90;;;;;;4934923;29;20545;-74
2021/12/26 08:00:16;;;;;;;35.30;16.93;;;5.40;99.90;;;;;;4934627;29;20989;-74
2021/12/26 08:02:43;;;;;;;34.13;17.27;;;5.40;99.90;;;;;;4935239;29;20541;-74
2021/12/26 08:05:10;;;;;;;39.30;17.83;;;5.40;99.90;;;;;;4935029;29;20540;-74
2021/12/26 08:07:38;;;;;;;35.87;16.67;;;5.50;99.90;;;;;;4934836;29;20922;-74
2021/12/26 08:10:07;;;;;;;37.27;17.20;;;5.50;99.90;;;;;;4934676;29;20994;-75
2021/12/26 08:12:34;;;;;;;39.20;17.90;;;5.60;99.90;;;;;;4934581;29;20549;-74
2021/12/26 08:15:02;;;;;;;31.20;16.43;;;5.60;99.90;;;;;;4935077;29;20538;-74
2021/12/26 08:17:29;;;;;;;31.43;15.97;;;5.60;99.90;;;;;;4935045;29;20540;-74
2021/12/26 08:19:56;;;;;;;44.77;18.80;;;5.60;99.90;;;;;;4934658;29;20486;-73
2021/12/26 08:22:23;;;;;;;42.87;19.13;;;5.50;99.90;;;;;;4934618;29;20856;-73
2021/12/26 08:24:50;;;;;;;38.13;17.03;;;5.50;99.90;;;;;;4934630;29;20485;-73
2021/12/26 08:27:18;;;;;;;37.27;18.17;;;5.50;99.90;;;;;;4934481;29;20588;-73
2021/12/26 08:29:46;;;;;;;38.13;17.80;;;5.50;99.90;;;;;;4934582;29;20492;-73
2021/12/26 08:32:16;;;;;;;39.53;19.03;;;5.50;99.90;;;;;;4934600;29;20469;-74
2021/12/26 08:34:44;;;;;;;39.07;18.60;;;5.40;99.90;;;;;;4934769;29;20449;-73
2021/12/26 08:37:11;;;;;;;41.43;20.00;;;5.50;99.90;;;;;;4934652;29;20450;-73
2021/12/26 08:39:41;;;;;;;41.40;19.60;;;5.50;99.90;;;;;;4934176;29;20489;-73
2021/12/26 08:42:09;;;;;;;37.20;16.93;;;5.60;99.90;;;;;;4934426;29;21277;-73
2021/12/26 08:44:38;;;;;;;43.33;18.90;;;5.50;99.90;;;;;;4934742;29;20485;-74
2021/12/26 08:47:07;;;;;;;72.60;28.00;;;5.50;99.90;;;;;;4934541;29;20576;-73
2021/12/26 08:49:34;;;;;;;46.07;20.60;;;5.50;99.90;;;;;;4934384;29;20490;-73
2021/12/26 08:52:01;;;;;;;57.93;21.90;;;5.50;99.90;;;;;;4934289;29;20548;-73
2021/12/26 08:54:29;;;;;;;45.53;20.43;;;5.60;99.90;;;;;;4935265;29;20545;-73
2021/12/26 08:56:57;;;;;;;41.67;20.17;;;5.60;99.90;;;;;;4938422;29;20496;-74
2021/12/26 08:59:24;;;;;;;39.60;19.10;;;5.60;99.90;;;;;;4938147;29;20553;-73
2021/12/26 09:01:52;;;;;;;40.97;19.77;;;5.60;99.90;;;;;;4938091;29;20592;-73
2021/12/26 09:04:19;;;;;;;39.93;17.53;;;5.70;99.90;;;;;;4938304;29;20546;-73
2021/12/26 09:06:46;;;;;;;42.00;18.93;;;5.70;99.90;;;;;;4937782;29;20508;-73
2021/12/26 09:09:13;;;;;;;47.57;17.93;;;5.70;99.90;;;;;;4937953;29;20877;-74
2021/12/26 09:11:40;;;;;;;38.87;17.20;;;5.80;99.90;;;;;;4938320;29;20512;-74
2021/12/26 09:14:07;;;;;;;36.83;19.30;;;5.80;99.90;;;;;;4938082;29;20892;-75
2021/12/26 09:16:35;;;;;;;41.33;19.80;;;5.80;99.90;;;;;;4938036;29;20500;-75
2021/12/26 09:19:04;;;;;;;36.97;18.50;;;5.80;99.90;;;;;;4937487;29;20544;-75
2021/12/26 09:21:32;;;;;;;44.60;22.53;;;5.80;99.90;;;;;;4937913;29;20564;-75
2021/12/26 09:23:59;;;;;;;43.50;19.50;;;5.90;99.90;;;;;;4938073;29;20481;-75
2021/12/26 09:26:26;;;;;;;40.20;18.67;;;5.90;99.90;;;;;;4937829;29;20488;-76
2021/12/26 09:28:52;;;;;;;41.57;19.07;;;5.80;99.90;;;;;;4937477;29;20540;-76
2021/12/26 09:31:19;;;;;;;34.37;17.23;;;5.90;99.90;;;;;;4937748;29;20520;-75
2021/12/26 09:33:47;;;;;;;40.40;18.20;;;5.90;99.90;;;;;;4937477;29;20472;-74
2021/12/26 09:36:15;;;;;;;41.03;19.13;;;5.90;99.90;;;;;;4955439;29;20520;-74
2021/12/26 09:38:42;;;;;;;37.67;19.47;;;6.00;99.90;;;;;;4948460;29;20469;-76
2021/12/26 09:41:09;;;;;;;38.87;19.50;;;6.00;99.90;;;;;;4948131;28;20544;-75
2021/12/26 09:43:36;;;;;;;41.40;19.47;;;6.00;99.90;;;;;;4937543;29;21032;-75
2021/12/26 09:46:03;;;;;;;43.60;19.03;;;6.10;99.90;;;;;;4937415;29;20528;-74
2021/12/26 09:48:30;;;;;;;51.60;19.83;;;6.10;99.90;;;;;;4937446;29;20528;-75
2021/12/26 09:50:57;;;;;;;40.80;18.17;;;6.20;99.90;;;;;;4936952;29;21029;-75
2021/12/26 09:53:26;;;;;;;36.00;17.50;;;6.20;99.90;;;;;;4937287;29;20574;-75
2021/12/26 09:55:53;;;;;;;37.60;18.23;;;6.20;99.90;;;;;;4937302;29;20540;-75
2021/12/26 09:58:20;;;;;;;36.70;17.10;;;6.20;99.90;;;;;;4937211;29;20880;-75
2021/12/26 10:00:49;;;;;;;36.10;18.47;;;6.30;99.90;;;;;;4936582;29;20517;-74
2021/12/26 10:03:22;;;;;;;31.10;16.60;;;6.30;99.90;;;;;;4936950;29;21010;-75
2021/12/26 10:05:56;;;;;;;34.83;17.43;;;6.30;99.90;;;;;;4936725;29;20489;-76
2021/12/26 10:08:24;;;;;;;30.30;16.20;;;6.40;99.90;;;;;;4936872;29;20533;-75
2021/12/26 10:11:07;;;;;;;30.37;16.27;;;6.40;99.90;;;;;;4936757;29;20513;-75
2021/12/26 10:13:41;;;;;;;31.30;16.33;;;6.40;99.90;;;;;;4937134;29;20537;-74
2021/12/26 10:16:08;;;;;;;30.33;15.53;;;6.40;99.90;;;;;;4937926;29;20536;-74
2021/12/26 10:18:39;;;;;;;29.47;15.80;;;6.40;99.90;;;;;;4937179;29;20457;-74
2021/12/26 10:21:24;;;;;;;29.67;15.90;;;6.40;99.90;;;;;;4936783;29;20458;-74
2021/12/26 10:23:51;;;;;;;31.67;14.30;;;6.40;99.90;;;;;;4945799;29;20456;-75
2021/12/26 10:26:21;;;;;;;26.10;15.50;;;6.40;99.90;;;;;;4959707;28;20457;-75
2021/12/26 10:29:08;;;;;;;30.47;16.70;;;6.50;99.90;;;;;;4955535;29;20579;-74
2021/12/26 10:31:38;;;;;;;28.83;16.23;;;6.50;99.90;;;;;;4954978;28;20497;-74
2021/12/26 10:34:05;;;;;;;25.40;14.70;;;6.50;99.90;;;;;;4954283;29;20528;-75
2021/12/26 10:36:32;;;;;;;26.70;14.77;;;6.50;99.90;;;;;;4955180;29;20541;-75
2021/12/26 10:39:12;;;;;;;26.83;15.07;;;6.50;99.90;;;;;;4954507;29;20540;-74
2021/12/26 10:41:44;;;;;;;24.70;14.50;;;6.60;99.90;;;;;;4953295;28;20476;-75
2021/12/26 10:44:29;;;;;;;26.57;15.37;;;6.60;99.90;;;;;;4951803;29;20500;-75
2021/12/26 10:47:07;;;;;;;24.83;14.10;;;6.70;99.90;;;;;;4954629;28;20476;-75
2021/12/26 10:49:37;;;;;;;23.10;14.17;;;6.70;99.90;;;;;;4954623;28;20977;-75
2021/12/26 10:52:15;;;;;;;26.13;15.80;;;6.70;99.90;;;;;;4954618;29;21052;-75
2021/12/26 10:54:44;;;;;;;23.40;13.03;;;6.80;99.90;;;;;;4954204;29;20456;-76
2021/12/26 10:57:20;;;;;;;19.83;12.10;;;6.90;99.90;;;;;;4954574;28;20938;-75
2021/12/26 10:59:49;;;;;;;20.70;13.00;;;6.90;99.90;;;;;;4954137;29;20456;-75
2021/12/26 11:02:25;;;;;;;19.83;12.83;;;7.00;99.90;;;;;;4954382;29;20543;-74
2021/12/26 11:05:03;;;;;;;19.40;12.13;;;7.10;99.90;;;;;;4954143;29;20555;-66
2021/12/26 11:07:45;;;;;;;20.77;12.40;;;7.10;99.90;;;;;;4954063;29;20551;-66
2021/12/26 11:10:15;;;;;;;17.33;10.90;;;7.20;99.90;;;;;;4954373;28;20460;-66
2021/12/26 11:12:46;;;;;;;17.33;10.73;;;7.20;99.90;;;;;;4954504;29;20484;-66
2021/12/26 11:15:15;;;;;;;19.60;11.07;;;7.30;99.90;;;;;;4994798;23;20496;-68
2021/12/26 11:17:45;;;;;;;17.97;11.87;;;7.30;99.90;;;;;;4950425;28;20543;-68
2021/12/26 11:20:28;;;;;;;15.10;10.10;;;7.40;99.90;;;;;;4953141;29;20511;-74
2021/12/26 11:22:56;;;;;;;16.47;11.03;;;7.50;99.90;;;;;;4943458;29;20473;-74
2021/12/26 11:25:24;;;;;;;18.87;10.40;;;7.60;99.90;;;;;;4942518;29;20469;-73
2021/12/26 11:27:52;;;;;;;15.70;10.37;;;7.70;99.90;;;;;;4943299;29;20528;-74
2021/12/26 11:30:21;;;;;;;12.33;8.90;;;7.70;99.90;;;;;;4942133;29;20449;-74
2021/12/26 11:32:48;;;;;;;15.93;10.33;;;7.80;99.90;;;;;;4940495;29;20484;-74
2021/12/26 11:35:15;;;;;;;13.80;10.20;;;7.90;99.90;;;;;;4943313;29;20700;-74
2021/12/26 11:37:42;;;;;;;13.00;10.03;;;7.90;99.90;;;;;;4944088;29;20489;-74
2021/12/26 11:40:12;;;;;;;13.93;10.20;;;8.00;99.90;;;;;;4945169;29;20556;-74
2021/12/26 11:43:19;;;;;;;14.93;10.30;;;8.00;99.90;;;;;;4942995;29;20942;-74
2021/12/26 11:45:54;;;;;;;12.50;8.90;;;8.10;99.90;;;;;;4944226;29;20477;-74
2021/12/26 11:49:07;;;;;;;15.00;10.00;;;8.10;99.90;;;;;;4943821;29;20489;-73
2021/12/26 11:51:59;;;;;;;12.00;9.30;;;8.00;99.90;;;;;;4931900;29;20492;-73
2021/12/26 11:54:50;;;;;;;13.47;9.80;;;8.00;99.90;;;;;;4944558;29;20536;-67
2021/12/26 11:57:53;;;;;;;15.10;9.50;;;8.00;99.90;;;;;;4938099;29;20997;-67
2021/12/26 12:00:26;;;;;;;10.87;8.10;;;7.90;99.90;;;;;;4935535;29;20515;-67
2021/12/26 12:02:57;;;;;;;11.40;7.73;;;8.00;99.90;;;;;;4934058;29;20450;-67
2021/12/26 12:05:26;;;;;;;11.80;8.40;;;8.10;99.90;;;;;;4933896;29;20565;-67
2021/12/26 12:07:57;;;;;;;11.37;9.03;;;8.00;99.90;;;;;;4933014;29;20504;-67
2021/12/26 12:10:47;;;;;;;12.73;8.80;;;8.10;99.90;;;;;;4933538;29;20459;-67
2021/12/26 12:13:31;;;;;;;11.37;8.57;;;8.10;99.90;;;;;;4933904;29;20454;-67
2021/12/26 12:16:01;;;;;;;12.50;8.70;;;8.20;99.90;;;;;;4933186;29;20488;-67
2021/12/26 12:18:31;;;;;;;11.40;7.87;;;8.20;99.90;;;;;;4933510;29;20470;-66
2021/12/26 12:21:14;;;;;;;9.07;7.47;;;8.20;99.90;;;;;;4933532;29;20450;-66
2021/12/26 12:24:00;;;;;;;9.43;7.23;;;8.20;99.90;;;;;;4933549;29;20455;-66
2021/12/26 12:26:53;;;;;;;11.03;8.20;;;8.30;99.90;;;;;;4933699;29;20469;-66
2021/12/26 12:29:45;;;;;;;11.80;8.53;;;8.40;99.90;;;;;;4922492;29;20501;-66
2021/12/26 12:32:16;;;;;;;16.57;7.97;;;8.40;99.90;;;;;;4932816;29;20449;-66
2021/12/26 12:34:49;;;;;;;12.30;9.77;;;8.40;99.90;;;;;;4932852;29;20556;-75
2021/12/26 12:37:46;;;;;;;13.33;9.50;;;8.40;99.90;;;;;;4933444;29;20517;-74
2021/12/26 12:40:18;;;;;;;10.37;8.17;;;8.40;99.90;;;;;;4911537;28;20493;-74
2021/12/26 12:42:59;;;;;;;12.73;8.70;;;8.50;99.90;;;;;;4934558;29;20540;-74
2021/12/26 12:45:27;;;;;;;11.63;8.90;;;8.50;99.90;;;;;;4934254;29;20482;-74
2021/12/26 12:48:29;;;;;;;13.40;8.73;;;8.60;99.90;;;;;;4934570;29;20941;-74
2021/12/26 12:51:02;;;;;;;12.33;8.60;;;8.60;99.90;;;;;;4931018;29;21041;-74
2021/12/26 12:53:42;;;;;;;11.03;7.90;;;8.70;99.90;;;;;;4934188;29;20549;-74
2021/12/26 12:56:11;;;;;;;10.73;8.10;;;8.70;99.90;;;;;;4934511;29;20556;-76
2021/12/26 12:58:38;;;;;;;10.20;7.90;;;8.70;99.90;;;;;;4934919;29;20489;-74
2021/12/26 13:01:07;;;;;;;10.10;8.27;;;8.70;99.90;;;;;;4933932;29;20536;-75
2021/12/26 13:03:36;;;;;;;7.13;6.43;;;8.60;99.90;;;;;;4936540;29;20529;-74
2021/12/26 13:06:15;;;;;;;6.63;5.60;;;8.70;99.90;;;;;;4941632;29;20981;-75
2021/12/26 13:08:42;;;;;;;7.17;5.40;;;8.80;99.90;;;;;;4935567;29;20496;-75
2021/12/26 13:11:09;;;;;;;6.20;5.33;;;8.80;99.90;;;;;;4934205;29;21020;-75
2021/12/26 13:13:40;;;;;;;7.03;6.30;;;8.80;99.90;;;;;;4934422;29;20517;-76
2021/12/26 13:16:07;;;;;;;9.00;6.47;;;8.80;99.90;;;;;;4946022;29;20477;-74
2021/12/26 13:18:36;;;;;;;7.20;6.00;;;8.80;99.90;;;;;;4953195;28;20947;-75
2021/12/26 13:21:05;;;;;;;12.77;6.87;;;8.90;99.90;;;;;;4953115;29;20473;-75
2021/12/26 13:23:34;;;;;;;6.57;5.27;;;8.90;99.90;;;;;;4953559;29;20495;-75
2021/12/26 13:26:03;;;;;;;5.20;4.40;;;8.90;99.90;;;;;;4952908;29;20515;-75
2021/12/26 13:28:31;;;;;;;6.90;5.37;;;8.80;99.90;;;;;;4950296;29;21076;-74
2021/12/26 13:31:01;;;;;;;6.37;4.70;;;8.90;99.90;;;;;;4952271;29;20831;-75
2021/12/26 13:33:30;;;;;;;6.50;5.67;;;9.00;99.90;;;;;;4951746;28;20543;-75
2021/12/26 13:35:58;;;;;;;5.73;4.50;;;9.10;99.90;;;;;;4952003;29;20481;-75
2021/12/26 13:38:25;;;;;;;4.50;4.10;;;9.10;99.90;;;;;;4952477;29;20500;-75
2021/12/26 13:40:56;;;;;;;6.00;4.80;;;9.10;99.90;;;;;;4953891;28;20492;-75
2021/12/26 13:43:31;;;;;;;5.20;4.70;;;9.10;99.90;;;;;;4956550;29;20531;-75
2021/12/26 13:45:59;;;;;;;5.00;4.57;;;9.10;99.90;;;;;;4956465;28;20999;-75
2021/12/26 13:48:30;;;;;;;6.30;4.80;;;9.20;99.90;;;;;;4956624;29;20575;-75
2021/12/26 13:50:58;;;;;;;13.03;5.60;;;9.20;99.90;;;;;;4956422;29;20458;-75
2021/12/26 13:53:25;;;;;;;6.50;5.40;;;9.20;99.90;;;;;;4956499;29;20488;-75
2021/12/26 13:55:55;;;;;;;5.03;4.47;;;9.20;99.90;;;;;;4956453;29;20508;-75
2021/12/26 13:58:26;;;;;;;7.37;5.03;;;9.20;99.90;;;;;;4956241;29;20825;-75
2021/12/26 14:00:55;;;;;;;6.20;5.30;;;9.20;99.90;;;;;;4956398;29;20461;-75
2021/12/26 14:03:22;;;;;;;7.20;5.70;;;9.20;99.90;;;;;;4956231;29;20452;-75
2021/12/26 14:05:50;;;;;;;6.53;5.10;;;9.20;99.90;;;;;;4956281;29;20468;-75
2021/12/26 14:08:18;;;;;;;6.97;5.20;;;9.30;99.90;;;;;;4956208;29;21050;-75
2021/12/26 14:10:45;;;;;;;6.27;5.00;;;9.30;99.90;;;;;;4955811;29;20540;-75
2021/12/26 14:13:19;;;;;;;5.70;4.83;;;9.30;99.90;;;;;;4956491;29;20487;-75
2021/12/26 14:15:49;;;;;;;5.70;4.63;;;9.30;99.90;;;;;;4956124;29;20495;-75
2021/12/26 14:18:18;;;;;;;4.10;3.50;;;9.30;99.90;;;;;;4956262;28;20504;-75
2021/12/26 14:20:48;;;;;;;5.23;4.33;;;9.30;99.90;;;;;;4955832;28;20449;-75
2021/12/26 14:23:21;;;;;;;4.97;4.47;;;9.30;99.90;;;;;;4955825;29;20457;-75
2021/12/26 14:25:48;;;;;;;4.73;4.20;;;9.30;99.90;;;;;;4955845;29;20505;-75
2021/12/26 14:28:19;;;;;;;6.67;5.10;;;9.30;99.90;;;;;;4955680;29;20583;-75
2021/12/26 14:30:47;;;;;;;6.23;5.20;;;9.30;99.90;;;;;;4955705;29;20464;-75
2021/12/26 14:33:15;;;;;;;6.70;5.40;;;9.30;99.90;;;;;;4955724;28;20496;-75
2021/12/26 14:35:45;;;;;;;6.17;5.57;;;9.30;99.90;;;;;;4955203;29;21068;-75
2021/12/26 14:38:15;;;;;;;5.57;4.40;;;9.30;99.90;;;;;;4955541;29;20449;-75
2021/12/26 14:40:55;;;;;;;7.33;5.50;;;9.30;99.90;;;;;;4955675;28;20544;-74
2021/12/26 14:43:25;;;;;;;6.43;4.93;;;9.30;99.90;;;;;;4955851;28;20992;-74
2021/12/26 14:45:55;;;;;;;6.73;6.00;;;9.20;99.90;;;;;;4955429;29;20497;-74
2021/12/26 14:48:27;;;;;;;7.30;6.33;;;9.20;99.90;;;;;;4955323;29;20925;-74
2021/12/26 14:50:55;;;;;;;9.07;6.80;;;9.20;99.90;;;;;;4955349;28;20452;-74
2021/12/26 14:53:22;;;;;;;10.93;7.67;;;9.20;99.90;;;;;;4955607;28;20492;-74
2021/12/26 14:56:00;;;;;;;10.97;7.53;;;9.10;99.90;;;;;;4951174;29;20472;-75
2021/12/26 14:58:45;;;;;;;9.77;8.00;;;9.10;99.90;;;;;;4954356;29;20540;-74
2021/12/26 15:01:23;;;;;;;9.87;7.70;;;9.00;99.90;;;;;;4954123;29;20532;-74
2021/12/26 15:03:50;;;;;;;11.90;8.90;;;9.00;99.90;;;;;;4954118;29;20982;-73
2021/12/26 15:06:17;;;;;;;11.33;7.80;;;9.10;99.90;;;;;;4954272;29;20563;-73
2021/12/26 15:08:44;;;;;;;11.43;8.63;;;9.00;99.90;;;;;;4953991;29;20922;-73
2021/12/26 15:11:12;;;;;;;13.53;9.20;;;9.00;99.90;;;;;;4953796;29;20492;-73
2021/12/26 15:13:41;;;;;;;11.40;9.30;;;9.00;99.90;;;;;;4953877;29;20540;-73
2021/12/26 15:16:09;;;;;;;10.70;8.67;;;9.00;99.90;;;;;;4953963;29;20493;-73
2021/12/26 15:18:36;;;;;;;10.73;8.67;;;8.90;99.90;;;;;;4953839;29;20487;-73
2021/12/26 15:21:11;;;;;;;10.03;8.03;;;8.90;99.90;;;;;;4953763;29;21005;-73
2021/12/26 15:23:40;;;;;;;10.97;7.97;;;8.90;99.90;;;;;;4954079;28;20519;-73
2021/12/26 15:26:10;;;;;;;10.70;8.60;;;8.90;99.90;;;;;;4953762;29;20477;-73
2021/12/26 15:28:39;;;;;;;11.67;8.90;;;8.80;99.90;;;;;;4953636;29;20571;-73
2021/12/26 15:31:11;;;;;;;11.70;8.30;;;8.80;99.90;;;;;;4953683;29;20453;-73
2021/12/26 15:33:41;;;;;;;16.53;9.73;;;8.80;99.90;;;;;;4953913;28;20480;-73
2021/12/26 15:36:11;;;;;;;11.23;9.53;;;8.80;99.90;;;;;;4953536;29;20997;-73
2021/12/26 15:38:38;;;;;;;13.93;9.43;;;8.70;99.90;;;;;;4953749;28;20453;-73
2021/12/26 15:41:06;;;;;;;14.40;10.07;;;8.70;99.90;;;;;;4953822;28;20544;-73
2021/12/26 15:43:33;;;;;;;12.23;10.20;;;8.70;99.90;;;;;;4953703;28;20488;-73
2021/12/26 15:46:00;;;;;;;13.33;11.33;;;8.70;99.90;;;;;;4948131;29;20560;-74
2021/12/26 15:48:29;;;;;;;16.80;13.20;;;8.60;99.90;;;;;;4940943;29;20480;-74
2021/12/26 15:50:57;;;;;;;21.73;13.27;;;8.60;99.90;;;;;;4952992;29;20575;-74
2021/12/26 15:53:23;;;;;;;16.53;12.33;;;8.60;99.90;;;;;;4942615;28;20446;-74
2021/12/26 15:55:50;;;;;;;16.50;12.80;;;8.70;99.90;;;;;;4934402;29;20501;-73
2021/12/26 15:58:17;;;;;;;11.20;8.80;;;8.60;99.90;;;;;;4934416;29;20486;-74
2021/12/26 16:00:44;;;;;;;12.20;9.50;;;8.60;99.90;;;;;;4949088;29;20531;-74
2021/12/26 16:03:11;;;;;;;11.00;8.40;;;8.50;99.90;;;;;;4952486;28;20539;-74
2021/12/26 16:05:40;;;;;;;10.57;8.40;;;8.50;99.90;;;;;;4952947;29;20480;-74
2021/12/26 16:08:06;;;;;;;11.40;8.40;;;8.50;99.90;;;;;;4953013;29;20535;-74
2021/12/26 16:10:34;;;;;;;8.70;7.80;;;8.50;99.90;;;;;;4952867;29;20555;-74
2021/12/26 16:13:01;;;;;;;9.43;7.30;;;8.40;99.90;;;;;;4952939;28;20985;-73
2021/12/26 16:15:28;;;;;;;11.60;9.60;;;8.30;99.90;;;;;;4953342;29;20563;-73
2021/12/26 16:17:55;;;;;;;11.60;8.83;;;8.30;99.90;;;;;;4954043;29;20503;-74
2021/12/26 16:20:23;;;;;;;92.17;48.53;;;8.40;99.90;;;;;;4953844;29;20524;-74
2021/12/26 16:22:52;;;;;;;44.00;25.90;;;8.30;99.90;;;;;;4954243;29;20461;-74
2021/12/26 16:25:19;;;;;;;35.53;22.27;;;8.30;99.90;;;;;;4954107;29;20535;-74
2021/12/26 16:27:48;;;;;;;18.97;13.43;;;8.30;99.90;;;;;;4953782;28;20543;-74
2021/12/26 16:30:18;;;;;;;15.83;11.67;;;8.30;99.90;;;;;;4953488;29;20537;-74
2021/12/26 16:32:45;;;;;;;12.23;10.00;;;8.30;99.90;;;;;;4953736;29;20463;-74
2021/12/26 16:35:14;;;;;;;10.67;7.87;;;8.20;99.90;;;;;;4953729;29;20460;-74
2021/12/26 16:37:42;;;;;;;12.53;7.80;;;8.20;99.90;;;;;;4954507;29;20492;-74
2021/12/26 16:40:13;;;;;;;11.00;7.97;;;8.20;99.90;;;;;;4953632;29;20484;-74
2021/12/26 16:42:40;;;;;;;10.37;7.97;;;8.20;99.90;;;;;;4953825;28;20540;-74
2021/12/26 16:45:10;;;;;;;13.50;10.17;;;8.20;99.90;;;;;;4953611;29;20461;-74
2021/12/26 16:47:37;;;;;;;9.37;7.40;;;8.20;99.90;;;;;;4953799;29;20550;-74
2021/12/26 16:50:04;;;;;;;10.13;8.50;;;8.20;99.90;;;;;;4953529;28;20928;-74
2021/12/26 16:52:31;;;;;;;10.27;7.83;;;8.10;99.90;;;;;;4953650;29;21028;-74
2021/12/26 16:54:58;;;;;;;12.83;9.00;;;8.10;99.90;;;;;;4953551;29;20488;-74
2021/12/26 16:57:26;;;;;;;14.63;9.87;;;8.10;99.90;;;;;;4953425;29;20552;-74
2021/12/26 16:59:53;;;;;;;16.33;10.17;;;8.00;99.90;;;;;;4953648;29;20484;-74
2021/12/26 17:02:20;;;;;;;17.33;11.33;;;8.00;99.90;;;;;;4953486;29;20457;-74
2021/12/26 17:04:48;;;;;;;17.50;12.00;;;8.00;99.90;;;;;;4953918;29;20480;-74
2021/12/26 17:07:17;;;;;;;16.90;11.10;;;7.90;99.90;;;;;;4953417;29;21059;-74
2021/12/26 17:09:44;;;;;;;18.73;12.70;;;7.90;99.90;;;;;;4953211;29;20950;-74
2021/12/26 17:12:13;;;;;;;15.93;11.00;;;7.90;99.90;;;;;;4953612;29;20524;-74
2021/12/26 17:14:42;;;;;;;14.53;10.90;;;7.90;99.90;;;;;;4953442;28;21025;-74
2021/12/26 17:17:09;;;;;;;14.20;9.70;;;7.90;99.90;;;;;;4991676;23;20920;-76
2021/12/26 17:19:36;;;;;;;12.03;9.83;;;7.90;99.90;;;;;;4976499;28;20543;-75
2021/12/26 17:22:03;;;;;;;17.97;13.77;;;7.90;99.90;;;;;;4976424;28;21034;-75
2021/12/26 17:24:33;;;;;;;18.47;12.40;;;8.00;99.90;;;;;;4976211;28;20492;-75
2021/12/26 17:27:00;;;;;;;16.43;11.97;;;8.00;99.90;;;;;;4976864;28;20981;-75
2021/12/26 17:29:27;;;;;;;15.40;10.90;;;8.00;99.90;;;;;;4976033;28;20578;-75
2021/12/26 17:31:56;;;;;;;17.70;10.80;;;8.00;99.90;;;;;;4976381;28;20494;-75
2021/12/26 17:34:26;;;;;;;15.97;11.90;;;8.00;99.90;;;;;;4976242;28;20562;-76
2021/12/26 17:36:53;;;;;;;14.47;10.50;;;8.00;99.90;;;;;;4976253;28;20500;-75
2021/12/26 17:39:19;;;;;;;19.30;14.37;;;8.00;99.90;;;;;;4975918;28;20530;-78
2021/12/26 17:41:46;;;;;;;19.87;14.13;;;8.00;99.90;;;;;;4976451;28;20456;-75
2021/12/26 17:44:19;;;;;;;13.70;11.33;;;7.90;99.90;;;;;;4972648;28;20455;-75
2021/12/26 17:46:46;;;;;;;12.30;9.40;;;7.90;99.90;;;;;;4956541;28;20871;-74
2021/12/26 17:49:14;;;;;;;12.63;9.57;;;7.90;99.90;;;;;;4955860;29;20582;-74
2021/12/26 17:51:41;;;;;;;18.43;13.20;;;7.90;99.90;;;;;;4955477;29;20503;-75
2021/12/26 17:54:08;;;;;;;13.70;11.23;;;7.90;99.90;;;;;;4955650;28;21008;-74
2021/12/26 17:56:35;;;;;;;14.90;10.13;;;7.90;99.90;;;;;;4955573;28;21005;-75